createdAt,value
2017-08-26T00:00:28.946Z,73.59
2017-08-26T00:03:04.297Z,73.51
2017-08-26T00:05:35.984Z,73.55
2017-08-26T00:08:07.624Z,73.64
2017-08-26T00:10:39.446Z,73.53
2017-08-26T00:13:10.746Z,73.52
2017-08-26T00:18:08.496Z,73.53
2017-08-26T00:20:39.817Z,73.38
2017-08-26T00:23:11.569Z,73.45
2017-08-26T00:25:42.929Z,73.98
2017-08-26T00:28:15.257Z,74.50
2017-08-26T00:30:47.031Z,74.73
2017-08-26T00:33:18.429Z,74.96
2017-08-26T00:35:49.752Z,75.10
2017-08-26T00:38:23.577Z,75.39
2017-08-26T00:40:54.959Z,75.38
2017-08-26T00:43:26.876Z,75.99
2017-08-26T00:45:58.454Z,75.87
2017-08-26T00:48:30.037Z,75.90
2017-08-26T00:51:01.952Z,75.88
2017-08-26T00:53:34.272Z,76.00
2017-08-26T00:56:11.336Z,76.07
2017-08-26T00:58:43.282Z,76.06
2017-08-26T01:01:14.600Z,76.03
2017-08-26T01:03:45.939Z,76.17
2017-08-26T01:06:17.446Z,76.37
2017-08-26T01:08:48.754Z,76.48
2017-08-26T01:11:21.797Z,76.51
2017-08-26T01:13:53.393Z,76.61
2017-08-26T01:16:26.323Z,76.50
2017-08-26T01:18:57.987Z,75.76
2017-08-26T01:21:29.768Z,74.67
2017-08-26T01:24:01.989Z,74.42
2017-08-26T01:26:33.329Z,74.08
2017-08-26T01:29:04.810Z,74.39
2017-08-26T01:31:36.471Z,74.29
2017-08-26T01:34:07.855Z,73.54
2017-08-26T01:36:39.217Z,73.28
2017-08-26T01:39:11.084Z,73.63
2017-08-26T01:41:42.422Z,74.09
2017-08-26T01:44:14.820Z,74.63
2017-08-26T01:46:46.171Z,74.92
2017-08-26T01:49:17.504Z,75.15
2017-08-26T01:51:49.118Z,75.36
2017-08-26T01:54:20.530Z,75.67
2017-08-26T01:56:51.873Z,76.02
2017-08-26T01:59:24.975Z,76.32
2017-08-26T02:01:56.350Z,76.33
2017-08-26T02:04:28.144Z,76.19
2017-08-26T02:06:59.450Z,76.25
2017-08-26T02:09:30.792Z,76.44
2017-08-26T02:12:04.428Z,76.64
2017-08-26T02:14:35.760Z,77.04
2017-08-26T02:17:07.151Z,77.49
2017-08-26T02:19:39.142Z,77.65
2017-08-26T02:22:10.501Z,77.79
2017-08-26T02:24:42.118Z,78.11
2017-08-26T02:27:13.474Z,78.32
2017-08-26T02:29:44.787Z,78.58
2017-08-26T02:32:17.150Z,78.64
2017-08-26T02:34:48.460Z,78.62
2017-08-26T02:37:20.121Z,78.50
2017-08-26T02:39:51.920Z,78.74
2017-08-26T02:42:24.539Z,78.91
2017-08-26T02:44:55.877Z,79.05
2017-08-26T02:47:27.748Z,79.29
2017-08-26T02:49:59.390Z,79.40
2017-08-26T02:52:30.708Z,79.07
2017-08-26T02:55:02.458Z,78.82
2017-08-26T02:57:33.765Z,78.70
2017-08-26T03:00:06.752Z,78.37
2017-08-26T03:02:38.101Z,78.23
2017-08-26T03:05:09.436Z,78.13
2017-08-26T03:07:41.232Z,78.17
2017-08-26T03:10:12.744Z,78.07
2017-08-26T03:12:44.366Z,78.08
2017-08-26T03:15:15.685Z,78.19
2017-08-26T03:17:47.427Z,78.23
2017-08-26T03:20:19.275Z,78.14
2017-08-26T03:22:50.645Z,78.02
2017-08-26T03:25:23.385Z,78.40
2017-08-26T03:27:54.707Z,78.64
2017-08-26T03:30:26.818Z,78.64
2017-08-26T03:32:58.292Z,78.74
2017-08-26T03:35:29.802Z,78.64
2017-08-26T03:38:03.434Z,78.53
2017-08-26T03:40:34.827Z,78.54
2017-08-26T03:43:06.138Z,78.50
2017-08-26T03:45:37.907Z,78.61
2017-08-26T03:48:09.978Z,79.14
2017-08-26T03:50:41.626Z,79.58
2017-08-26T03:53:13.202Z,79.56
2017-08-26T03:55:49.511Z,79.44
2017-08-26T03:58:21.361Z,79.59
2017-08-26T04:00:53.142Z,79.59
2017-08-26T04:03:25.801Z,79.68
2017-08-26T04:05:57.216Z,79.88
2017-08-26T04:08:28.915Z,79.94
2017-08-26T04:11:00.212Z,79.99
2017-08-26T04:13:31.860Z,80.10
2017-08-26T04:16:05.996Z,80.14
2017-08-26T04:18:37.504Z,80.40
2017-08-26T04:21:10.520Z,80.56
2017-08-26T04:23:41.906Z,80.58
2017-08-26T04:26:13.668Z,80.47
2017-08-26T04:28:59.323Z,80.41
2017-08-26T04:31:30.917Z,80.35
2017-08-26T04:34:03.346Z,80.40
2017-08-26T04:36:34.958Z,80.49
2017-08-26T04:39:06.653Z,80.49
2017-08-26T04:41:37.954Z,80.55
2017-08-26T04:44:09.276Z,80.61
2017-08-26T04:46:40.949Z,80.65
2017-08-26T04:49:12.247Z,80.41
2017-08-26T04:51:45.460Z,79.92
2017-08-26T04:54:17.088Z,79.61
2017-08-26T04:56:48.799Z,79.49
2017-08-26T04:59:20.233Z,79.37
2017-08-26T05:01:51.561Z,79.33
2017-08-26T05:04:24.413Z,79.36
2017-08-26T05:06:55.924Z,79.09
2017-08-26T05:09:27.535Z,79.00
2017-08-26T05:11:58.896Z,78.88
2017-08-26T05:14:30.224Z,78.78
2017-08-26T05:17:02.291Z,78.79
2017-08-26T05:19:33.620Z,78.84
2017-08-26T05:22:07.403Z,78.79
2017-08-26T05:24:39.008Z,78.45
2017-08-26T05:27:10.336Z,78.31
2017-08-26T05:29:41.653Z,78.44
2017-08-26T05:32:14.995Z,78.58
2017-08-26T05:34:46.704Z,78.32
2017-08-26T05:37:18.012Z,78.10
2017-08-26T05:39:49.692Z,77.61
2017-08-26T05:42:21.669Z,77.26
2017-08-26T05:44:52.997Z,77.08
2017-08-26T05:47:25.478Z,76.98
2017-08-26T05:49:56.781Z,76.94
2017-08-26T05:52:28.804Z,76.81
2017-08-26T05:55:00.134Z,76.64
2017-08-26T05:57:31.638Z,76.80
2017-08-26T06:00:04.610Z,76.78
2017-08-26T06:02:36.176Z,76.32
2017-08-26T06:05:07.528Z,75.78
2017-08-26T06:07:38.877Z,75.97
2017-08-26T06:10:10.758Z,75.30
2017-08-26T06:12:42.485Z,74.30
2017-08-26T06:15:13.803Z,73.68
2017-08-26T06:17:45.140Z,73.26
2017-08-26T06:20:16.947Z,73.21
2017-08-26T06:22:48.578Z,73.07
2017-08-26T06:25:20.035Z,72.56
2017-08-26T06:27:51.347Z,72.39
2017-08-26T06:30:23.883Z,72.42
2017-08-26T06:32:55.665Z,72.45
2017-08-26T06:35:27.499Z,72.39
2017-08-26T06:37:58.823Z,72.24
2017-08-26T06:40:30.428Z,71.84
2017-08-26T06:43:02.152Z,71.66
2017-08-26T06:45:33.448Z,71.46
2017-08-26T06:48:07.748Z,71.45
2017-08-26T06:50:39.047Z,71.30
2017-08-26T06:53:11.116Z,70.70
2017-08-26T06:55:42.445Z,69.86
2017-08-26T06:58:14.320Z,69.35
2017-08-26T07:00:46.047Z,68.87
2017-08-26T07:03:17.372Z,68.39
2017-08-26T07:05:49.373Z,68.43
2017-08-26T07:08:22.033Z,67.91
2017-08-26T07:10:53.415Z,67.05
2017-08-26T07:13:26.865Z,66.51
2017-08-26T07:15:58.226Z,66.05
2017-08-26T07:18:29.579Z,65.60
2017-08-26T07:21:01.376Z,65.26
2017-08-26T07:23:33.055Z,64.97
2017-08-26T07:26:05.994Z,64.24
2017-08-26T07:28:37.378Z,63.56
2017-08-26T07:31:08.720Z,62.79
2017-08-26T07:33:40.351Z,62.25
2017-08-26T07:36:12.112Z,61.63
2017-08-26T07:38:43.630Z,61.11
2017-08-26T07:41:15.386Z,60.76
2017-08-26T07:43:46.736Z,60.02
2017-08-26T07:46:19.452Z,60.71
2017-08-26T07:48:50.823Z,60.55
2017-08-26T07:51:23.538Z,60.64
2017-08-26T07:53:55.245Z,61.07
2017-08-26T07:56:27.734Z,61.49
2017-08-26T07:58:59.069Z,61.18
2017-08-26T08:01:30.884Z,61.38
2017-08-26T08:04:03.450Z,60.89
2017-08-26T08:06:35.077Z,60.84
2017-08-26T08:09:06.415Z,60.94
2017-08-26T08:11:37.920Z,61.46
2017-08-26T08:14:11.608Z,61.22
2017-08-26T08:16:42.997Z,60.77
2017-08-26T08:19:14.609Z,60.12
2017-08-26T08:21:46.066Z,59.45
2017-08-26T08:24:18.309Z,59.21
2017-08-26T08:26:50.029Z,58.81
2017-08-26T08:29:23.818Z,57.93
2017-08-26T08:31:55.435Z,57.18
2017-08-26T08:34:28.497Z,56.26
2017-08-26T08:37:00.362Z,56.73
2017-08-26T08:39:31.675Z,57.35
2017-08-26T08:42:03.827Z,57.05
2017-08-26T08:44:36.579Z,56.39
2017-08-26T08:47:11.076Z,56.18
2017-08-26T08:49:44.035Z,56.30
2017-08-26T08:52:16.527Z,57.54
2017-08-26T08:54:48.200Z,56.97
2017-08-26T08:57:19.702Z,56.63
2017-08-26T08:59:51.043Z,55.69
2017-08-26T09:02:24.289Z,54.86
2017-08-26T09:04:55.633Z,54.75
2017-08-26T09:07:28.342Z,54.76
2017-08-26T09:10:00.144Z,54.05
2017-08-26T09:12:31.581Z,54.83
2017-08-26T09:15:03.549Z,54.49
2017-08-26T09:17:35.314Z,53.58
2017-08-26T09:20:07.080Z,53.37
2017-08-26T09:22:38.529Z,53.29
2017-08-26T09:25:10.191Z,52.38
2017-08-26T09:27:41.520Z,51.82
2017-08-26T09:30:13.448Z,51.56
2017-08-26T09:32:44.972Z,50.73
2017-08-26T09:35:16.353Z,50.29
2017-08-26T09:37:48.256Z,49.86
2017-08-26T09:40:19.879Z,49.16
2017-08-26T09:42:51.265Z,48.84
2017-08-26T09:45:24.480Z,49.01
2017-08-26T09:47:55.831Z,49.72
2017-08-26T09:50:28.462Z,48.53
2017-08-26T09:53:00.922Z,47.75
2017-08-26T09:55:32.354Z,46.69
2017-08-26T09:58:05.406Z,46.35
2017-08-26T10:00:36.735Z,46.71
2017-08-26T10:03:08.062Z,46.99
2017-08-26T10:05:39.706Z,46.74
2017-08-26T10:08:12.360Z,46.17
2017-08-26T10:10:43.733Z,46.21
2017-08-26T10:13:15.549Z,45.39
2017-08-26T10:15:47.165Z,44.25
2017-08-26T10:18:19.348Z,44.34
2017-08-26T10:20:51.125Z,43.88
2017-08-26T10:23:25.148Z,43.54
2017-08-26T10:25:56.878Z,43.04
2017-08-26T10:28:28.294Z,42.21
2017-08-26T10:30:59.747Z,42.73
2017-08-26T10:33:31.720Z,42.73
2017-08-26T10:36:04.878Z,42.23
2017-08-26T10:38:36.452Z,42.09
2017-08-26T10:41:08.237Z,41.41
2017-08-26T10:43:39.760Z,42.16
2017-08-26T10:46:12.686Z,40.20
2017-08-26T10:48:44.096Z,39.65
2017-08-26T10:51:15.535Z,40.55
2017-08-26T10:53:47.958Z,40.46
2017-08-26T10:56:21.049Z,39.84
2017-08-26T10:58:52.436Z,39.04
2017-08-26T11:01:25.505Z,39.01
2017-08-26T11:03:56.899Z,38.59
2017-08-26T11:06:28.524Z,38.43
2017-08-26T11:08:59.941Z,37.77
2017-08-26T11:11:31.475Z,37.25
2017-08-26T11:14:05.288Z,36.91
2017-08-26T11:16:37.166Z,35.77
2017-08-26T11:19:08.604Z,36.13
2017-08-26T11:21:40.305Z,35.71
2017-08-26T11:24:12.030Z,35.75
2017-08-26T11:26:43.773Z,35.96
2017-08-26T11:29:15.180Z,35.97
2017-08-26T11:31:46.561Z,35.76
2017-08-26T11:34:18.269Z,36.34
2017-08-26T11:36:49.702Z,35.70
2017-08-26T11:39:22.054Z,34.38
2017-08-26T11:41:53.924Z,33.95
2017-08-26T11:44:27.494Z,32.78
2017-08-26T11:46:59.515Z,32.40
2017-08-26T11:49:30.902Z,33.05
2017-08-26T11:52:03.608Z,33.52
2017-08-26T11:54:35.285Z,32.33
2017-08-26T11:57:06.692Z,31.44
2017-08-26T11:59:38.124Z,29.38
2017-08-26T12:02:10.129Z,26.65
2017-08-26T12:04:41.472Z,23.61
2017-08-26T12:07:12.810Z,21.56
2017-08-26T12:09:44.170Z,22.69
2017-08-26T12:12:16.914Z,21.12
2017-08-26T12:14:51.649Z,19.81
2017-08-26T12:17:25.767Z,19.04
2017-08-26T12:19:57.244Z,19.63
2017-08-26T12:22:29.688Z,19.22
2017-08-26T12:25:01.646Z,19.20
2017-08-26T12:27:33.297Z,18.54
2017-08-26T12:30:06.412Z,17.56
2017-08-26T12:32:37.899Z,16.30
2017-08-26T12:35:09.630Z,17.13
2017-08-26T12:37:42.415Z,18.58
2017-08-26T12:40:14.751Z,18.40
2017-08-26T12:42:47.606Z,21.11
2017-08-26T12:45:19.308Z,24.39
2017-08-26T12:47:50.851Z,25.48
2017-08-26T12:50:22.960Z,24.17
2017-08-26T12:53:57.091Z,25.46
2017-08-26T12:56:28.676Z,27.56
2017-08-26T12:59:00.070Z,29.59
2017-08-26T13:01:31.844Z,27.42
2017-08-26T13:04:06.910Z,20.89
2017-08-26T13:06:38.583Z,17.83
2017-08-26T13:09:10.316Z,16.75
2017-08-26T13:11:41.673Z,14.51
2017-08-26T13:14:14.291Z,14.42
2017-08-26T13:16:45.692Z,14.49
2017-08-26T13:19:20.452Z,16.16
2017-08-26T13:21:52.220Z,16.11
2017-08-26T13:24:25.300Z,14.64
2017-08-26T13:26:56.903Z,13.73
2017-08-26T13:29:29.943Z,13.42
2017-08-26T13:32:03.326Z,15.08
2017-08-26T13:34:34.935Z,15.35
2017-08-26T13:37:06.284Z,15.94
2017-08-26T13:39:37.604Z,16.09
2017-08-26T13:42:09.376Z,17.36
2017-08-26T13:44:40.691Z,16.18
2017-08-26T13:47:12.056Z,17.16
2017-08-26T13:49:43.670Z,20.25
2017-08-26T13:52:15.797Z,19.32
2017-08-26T13:54:47.396Z,16.69
2017-08-26T13:57:18.803Z,15.99
2017-08-26T13:59:50.451Z,15.48
2017-08-26T14:02:22.293Z,14.80
2017-08-26T14:04:53.926Z,16.25
2017-08-26T14:07:26.648Z,16.48
2017-08-26T14:09:57.948Z,16.16
2017-08-26T14:12:29.469Z,15.40
2017-08-26T14:15:01.128Z,14.85
2017-08-26T14:17:32.580Z,14.36
2017-08-26T14:20:05.837Z,15.21
2017-08-26T14:22:37.583Z,15.35
2017-08-26T14:25:08.948Z,15.14
2017-08-26T14:27:40.542Z,14.86
2017-08-26T14:30:13.400Z,14.66
2017-08-26T14:32:44.714Z,13.95
2017-08-26T14:35:16.349Z,15.56
2017-08-26T14:37:47.689Z,15.96
2017-08-26T14:40:20.478Z,15.13
2017-08-26T14:42:53.075Z,15.17
2017-08-26T14:45:26.510Z,14.25
2017-08-26T14:47:57.912Z,14.70
2017-08-26T14:50:29.622Z,14.00
2017-08-26T14:55:56.594Z,14.38
2017-08-26T14:58:28.914Z,14.59
2017-08-26T15:01:00.345Z,14.37
2017-08-26T15:03:31.993Z,13.51
2017-08-26T15:06:04.928Z,14.05
2017-08-26T15:08:36.570Z,15.32
2017-08-26T15:11:08.377Z,17.43
2017-08-26T15:13:39.721Z,16.28
2017-08-26T15:16:12.608Z,15.57
2017-08-26T15:18:44.015Z,15.57
2017-08-26T15:21:15.375Z,15.75
2017-08-26T15:23:47.006Z,14.76
2017-08-26T15:26:18.497Z,15.05
2017-08-26T15:28:49.962Z,15.38
2017-08-26T15:31:21.284Z,15.67
2017-08-26T15:33:52.578Z,15.35
2017-08-26T15:36:27.359Z,14.96
2017-08-26T15:38:58.763Z,15.54
2017-08-26T15:41:30.366Z,15.93
2017-08-26T15:44:01.793Z,15.57
2017-08-26T15:46:33.103Z,16.18
2017-08-26T15:49:04.879Z,16.43
2017-08-26T15:51:36.241Z,16.02
2017-08-26T15:54:08.395Z,16.79
2017-08-26T15:56:40.043Z,17.30
2017-08-26T16:02:12.138Z,18.87
2017-08-26T16:04:43.614Z,18.85
2017-08-26T16:07:15.304Z,18.71
2017-08-26T16:09:46.617Z,18.69
2017-08-26T16:12:20.109Z,18.58
2017-08-26T16:14:52.728Z,19.81
2017-08-26T16:17:24.552Z,20.83
2017-08-26T16:19:56.304Z,21.67
2017-08-26T16:22:28.843Z,22.42
2017-08-26T16:25:00.142Z,23.49
2017-08-26T16:27:31.895Z,22.91
2017-08-26T16:30:05.807Z,23.58
2017-08-26T16:32:37.518Z,24.17
2017-08-26T16:35:09.108Z,24.88
2017-08-26T16:37:40.654Z,25.41
2017-08-26T16:40:19.272Z,25.54
2017-08-26T16:42:50.635Z,25.87
2017-08-26T16:45:22.460Z,27.18
2017-08-26T16:47:54.121Z,27.24
2017-08-26T16:50:26.126Z,27.53
2017-08-26T16:52:57.871Z,29.02
2017-08-26T16:55:29.816Z,29.27
2017-08-26T16:58:02.963Z,29.62
2017-08-26T17:00:34.324Z,30.85
2017-08-26T17:03:05.736Z,31.46
2017-08-26T17:05:37.067Z,31.62
2017-08-26T17:08:11.886Z,32.14
2017-08-26T17:10:43.207Z,33.00
2017-08-26T17:13:14.517Z,33.25
2017-08-26T17:15:46.119Z,33.66
2017-08-26T17:18:18.426Z,35.53
2017-08-26T17:20:49.782Z,35.44
2017-08-26T17:23:21.452Z,35.95
2017-08-26T17:25:52.747Z,36.53
2017-08-26T17:28:25.068Z,37.38
2017-08-26T17:30:56.443Z,38.50
2017-08-26T17:33:28.783Z,39.24
2017-08-26T17:36:00.383Z,39.54
2017-08-26T17:38:31.713Z,40.20
2017-08-26T17:41:03.628Z,40.60
2017-08-26T17:43:35.221Z,40.75
2017-08-26T17:46:06.719Z,41.04
2017-08-26T17:48:38.249Z,41.44
2017-08-26T17:51:09.607Z,41.56
2017-08-26T17:53:41.190Z,41.96
2017-08-26T17:56:14.258Z,42.24
2017-08-26T17:58:45.586Z,42.42
2017-08-26T18:01:16.923Z,42.64
2017-08-26T18:03:48.575Z,43.03
2017-08-26T18:06:21.677Z,43.31
2017-08-26T18:08:53.021Z,43.69
2017-08-26T18:11:25.301Z,43.94
2017-08-26T18:13:56.651Z,44.25
2017-08-26T18:16:29.191Z,44.42
2017-08-26T18:19:00.749Z,44.62
2017-08-26T18:21:32.415Z,45.03
2017-08-26T18:24:06.163Z,45.35
2017-08-26T18:26:37.958Z,45.50
2017-08-26T18:29:09.323Z,45.59
2017-08-26T18:31:40.671Z,45.51
2017-08-26T18:34:15.631Z,45.60
2017-08-26T18:36:46.991Z,45.82
2017-08-26T18:39:18.617Z,46.61
2017-08-26T18:41:49.958Z,47.18
2017-08-26T18:44:22.190Z,47.33
2017-08-26T18:46:53.872Z,47.05
2017-08-26T18:49:26.655Z,48.59
2017-08-26T18:51:57.963Z,49.52
2017-08-26T18:54:29.683Z,49.23
2017-08-26T18:57:01.573Z,49.32
2017-08-26T18:59:32.929Z,49.17
2017-08-26T19:02:05.992Z,48.80
2017-08-26T19:04:37.510Z,49.42
2017-08-26T19:07:09.089Z,49.68
2017-08-26T19:09:40.396Z,48.73
2017-08-26T19:12:12.521Z,48.68
2017-08-26T19:14:44.370Z,49.27
2017-08-26T19:17:15.669Z,49.90
2017-08-26T19:19:47.072Z,49.47
2017-08-26T19:22:18.645Z,50.59
2017-08-26T19:24:50.045Z,51.01
2017-08-26T19:27:21.812Z,50.58
2017-08-26T19:29:53.136Z,51.42
2017-08-26T19:32:25.634Z,51.32
2017-08-26T19:34:57.295Z,51.51
2017-08-26T19:37:29.191Z,51.69
2017-08-26T19:40:01.573Z,51.51
2017-08-26T19:42:32.872Z,51.41
2017-08-26T19:45:04.366Z,51.60
2017-08-26T19:47:36.426Z,51.66
2017-08-26T19:50:07.897Z,51.65
2017-08-26T19:52:39.230Z,51.84
2017-08-26T19:55:10.912Z,51.85
2017-08-26T19:57:42.295Z,52.10
2017-08-26T20:00:15.181Z,53.16
2017-08-26T20:02:46.914Z,53.25
2017-08-26T20:05:18.289Z,53.05
2017-08-26T20:07:49.877Z,53.30
2017-08-26T20:10:23.306Z,53.64
2017-08-26T20:12:54.767Z,53.85
2017-08-26T20:15:27.808Z,53.68
2017-08-26T20:17:59.194Z,53.82
2017-08-26T20:20:30.995Z,54.09
2017-08-26T20:23:03.000Z,54.13
2017-08-26T20:25:34.384Z,54.04
2017-08-26T20:28:08.958Z,54.04
2017-08-26T20:30:40.363Z,53.88
2017-08-26T20:33:11.736Z,54.54
2017-08-26T20:35:43.443Z,54.71
2017-08-26T20:38:16.542Z,54.40
2017-08-26T20:40:47.867Z,54.32
2017-08-26T20:43:19.167Z,54.54
2017-08-26T20:45:50.547Z,55.54
2017-08-26T20:48:22.168Z,56.20
2017-08-26T20:50:53.524Z,55.61
2017-08-26T20:53:25.864Z,55.56
2017-08-26T20:55:57.811Z,55.47
2017-08-26T21:01:06.476Z,55.53
2017-08-26T21:03:37.916Z,55.49
2017-08-26T21:06:13.476Z,55.92
2017-08-26T21:08:45.315Z,55.89
2017-08-26T21:11:16.649Z,55.82
2017-08-26T21:13:48.026Z,56.09
2017-08-26T21:19:00.107Z,58.47
2017-08-26T21:21:32.545Z,57.75
2017-08-26T21:24:07.125Z,57.74
2017-08-26T21:26:38.904Z,58.51
2017-08-26T21:29:10.327Z,58.68
2017-08-26T21:31:42.098Z,58.11
2017-08-26T21:34:14.064Z,58.78
2017-08-26T21:36:45.662Z,58.88
2017-08-26T21:39:17.380Z,58.40
2017-08-26T21:41:48.765Z,58.42
2017-08-26T21:44:20.647Z,57.99
2017-08-26T21:46:51.993Z,57.81
2017-08-26T21:49:24.362Z,58.02
2017-08-26T21:51:56.221Z,57.89
2017-08-26T21:54:28.776Z,58.03
2017-08-26T21:57:00.593Z,58.27
2017-08-26T21:59:32.442Z,58.44
2017-08-26T22:02:20.227Z,58.56
2017-08-26T22:04:51.795Z,58.43
2017-08-26T22:07:23.741Z,58.44
2017-08-26T22:09:56.023Z,58.58
2017-08-26T22:12:28.357Z,59.04
2017-08-26T22:15:00.248Z,59.11
2017-08-26T22:17:33.272Z,59.04
2017-08-26T22:20:07.975Z,59.10
2017-08-26T22:22:39.951Z,59.27
2017-08-26T22:25:11.595Z,59.46
2017-08-26T22:27:44.332Z,59.73
2017-08-26T22:30:18.792Z,59.97
2017-08-26T22:32:51.026Z,60.14
2017-08-26T22:35:23.101Z,60.40
2017-08-26T22:37:54.831Z,60.61
2017-08-26T22:40:29.947Z,60.80
2017-08-26T22:43:02.428Z,60.82
2017-08-26T22:45:34.049Z,60.83
2017-08-26T22:48:07.075Z,61.05
2017-08-26T22:50:38.873Z,61.14
2017-08-26T22:53:11.447Z,60.93
2017-08-26T22:55:43.549Z,60.76
2017-08-26T22:58:15.404Z,60.59
2017-08-26T23:00:46.961Z,60.60
2017-08-26T23:03:18.971Z,60.59
2017-08-26T23:05:50.642Z,60.48
2017-08-26T23:08:23.375Z,60.03
2017-08-26T23:10:56.765Z,59.99
2017-08-26T23:13:29.838Z,59.41
2017-08-26T23:16:04.247Z,59.03
2017-08-26T23:21:02.458Z,58.66
2017-08-26T23:23:36.325Z,58.41
2017-08-26T23:26:10.360Z,58.65
2017-08-26T23:28:42.704Z,58.38
2017-08-26T23:31:14.719Z,58.44
2017-08-26T23:33:46.465Z,58.58
2017-08-26T23:36:19.323Z,58.31
2017-08-26T23:38:53.196Z,58.20
2017-08-26T23:41:26.379Z,57.77
2017-08-26T23:43:58.007Z,57.69
2017-08-26T23:46:31.153Z,57.55
2017-08-26T23:49:03.414Z,57.61
2017-08-26T23:51:35.025Z,57.49
2017-08-26T23:54:08.494Z,57.47
2017-08-26T23:56:40.041Z,57.45
2017-08-26T23:59:11.925Z,57.56
